Trout Lake, Washington
Current Conditions -  °F | °C
As of 8:59 PM on Wednesday 22 Oct 2014 (Local Time) from K4S2 Reporting Station
Moderate Rain Moderate Rain  
Wind Chill: 54°   Ceiling: 6500
Heat Index: 54°   Visibility: 4mi
Dew Point: 54°   Wind: 0mph
Humidity: 100%   Direction: NA
Pressure: 29.74"   Gusts: NA
Location:  46°N, 121.53°W
Report Text: K4S2 230359Z AUTO 00000KT 4SM RA SCT027 BKN065 OVC085 12/12 A2974 RMK AO2 P0005 SLP086 T01200120
Loading
Personal Weather Stations






























Interactive Weather Map
Tropical Storm Tracking
New forecast layout! Learn more

10-Day Weather Forecast

Advertisements
Track Severe Weather on mobile